Alsen, South Dakota
Current Conditions -  °F | °C
As of 7:15 AM on Friday 24 Oct 2014 (Local Time) from KYKN Reporting Station
Clear Clear  
Wind Chill: 12°   Ceiling: Unl
Heat Index: 12°   Visibility: 10mi
Dew Point:   Wind: 6mph
Humidity: 82%   Direction: 260°W
Pressure: 29.86"   Gusts: NA
Location:  43.1048°N, 96.7944°W
Report Text: KYKN 241215Z AUTO 26005KT 10SM CLR 12/09 A2986 RMK AO1
Loading
Personal Weather Stations






























Interactive Weather Map
Tropical Storm Tracking
New forecast layout! Learn more

10-Day Weather Forecast

Advertisements
Track Severe Weather on mobile